Sawyer, North Dakota
Current Conditions -  °F | °C
As of 10:06 AM on Sunday 23 Nov 2014 (Local Time) from KMOT Reporting Station
Light Snow Light Snow  
Wind Chill:   Ceiling: 1400
Heat Index: 22°   Visibility: 9mi
Dew Point: 15°   Wind: 29mph
Humidity: 75%   Direction: 270°W
Pressure: 29.44"   Gusts: 38mph
Location:  48.09°N, 101.05°W
Report Text: KMOT 231606Z 27025G33KT 9SM -SN OVC014 M06/M09 A2944 RMK AO2 PK WND 27033/1559 P0000 T10561094
Loading
Personal Weather Stations






























Interactive Weather Map New forecast layout! Learn more

10-Day Weather Forecast

Advertisements
Track Severe Weather on mobile